Etusivu
METAR-TAF:

METAR-TAF

Lentoasemat :

Jämsä, Suomi

Hallin lentoasema

Leveyspiiri: 61-51N, Pituuspiiri: 024-48E, korkeus merenpinnasta: 143 m

Tämänhetkinen sää

Tämä raportti tehtiin 31 minuuttia sitten, kello 23.50 UTC
Tuuli 3 kn lännestä/luoteesta
Lämpötila 9°C
Kosteus 100%
Ilmanpaine 1012 hPa
Näkyvyys 10 km tai enemmän
ei pilviä alle 1500 m:ssä eikä cumulonimbus-pilviä

METAR: EFHA 282350Z AUTO 30003KT CAVOK 09/09 Q1012

Aika: 03:21 (00:21 UTC)

Sääennuste

Tämä raportti tehtiin 12 tuntia ja 50 minuuttia sitten, kello 11.31 UTC
Ennuste voimassa 28. päivästä klo 12 UTC - 28. päivään klo 14 UTC
Tuuli 13 kn lännestä/luoteesta
Näkyvyys 10 km tai enemmän
Hajonneita pilviä 4000 ft:n korkeudessa
Hajonneita pilviä 7000 ft:n korkeudessa
Ajoittain
28. päivästä klo 12 UTC - 28. päivään klo 14 UTC
Hajanaisia pilviä 3000 ft:n korkeudessa, Cumulonimbus.

TAF: EFHA 281131Z 2812/2814 29013KT 9999 BKN040 BKN070 TEMPO 2812/2814 SCT030CB

Säähavainnot ja -ennusteet yli 4000 lentoasemalta (METAR- ja TAF-raportit).

Käytössä olevat sääasemat on merkitty karttaan keltaisilla ja punaisilla pisteillä.

Aseta hiiri pisteen päälle nähdäksesi sääaseman nimen.

Klikkaa sitten nähdäksesi säähavainnot ja -ennusteet.

Kartan vaihtaminen: klikkaa mustalla rastilla varustettuja vihreitä pisteitä, niin voit zoomata sisään; viivalla varustettua vihreää pistettä, niin voit zoomata ulos tai vihreitä nuolia, niin pääset viereisille kartoille.


METAR-TAF: